West Lake Hills, Texas
Current Conditions -  °F | °C
As of 1:51 PM on Thursday 29 Jan 2015 (Local Time) from KATT Reporting Station
Clear Clear  
Wind Chill: 76°   Ceiling: Unl
Heat Index: 76°   Visibility: 10mi
Dew Point: 48°   Wind: 0mph
Humidity: 37%   Direction: NA
Pressure: 30.2"   Gusts: NA
Location:  30.2958°N, 97.8101°W
Report Text: KATT 291951Z AUTO 00000KT 10SM CLR 24/09 A3020 RMK AO2 SLP222 T02440089
Loading
Personal Weather Stations






























Interactive Weather Map New forecast layout! Learn more

10-Day Weather Forecast

Advertisements
Track Severe Weather on mobile